Kymbo, Sweden

1:16 AM CEST on October 02, 2014 (GMT +0200)
Near Watertower, Stenstorp | Change Station
CLOSE
Current Station
Personal Weather Station
Location: Västra Götaland County, VäSTRA GöTALAND COUNTY
Elevation: 577 ft
Nearby Weather Stations

Elev 577 ft 58.27 °N, 13.72 °E | Updated 8 seconds ago

Light Drizzle
Light Drizzle
50.9 °F
Feels Like 50.9 °F
N
2.0
Wind Variable Wind from SSW
Gusts 3.1 mph

Today
High -- | Low -- °F
--% Chance of Precip.
Yesterday
High -- | Low -- °F
Precip. -- in
7:10 AM 6:36 PM
First Quarter, 52% visible
Pressure 30.30 in
Visibility 3.1 miles
Clouds Mostly Cloudy 400 ft
Dew Point 47 °F
Humidity 86%
Rainfall 0.00 in
Snow Depth Not available.
UV 0 out of 12
Pollen Not available.
Air Quality Not available.
Flu Activity Not available.
METAR ESGJ 012250Z 17006KT 5000 -DZ BKN004 09/09 Q1026

More Conditions Fewer Conditions

Pressure 30.30 in
Visibility 3.1 miles
Clouds Mostly Cloudy 400 ft
Dew Point 47 °F
Humidity 86%
Rainfall 0.00 in
Snow Depth Not available.
UV 0 out of 12
Pollen Not available.
Air Quality Not available.
Flu Activity Not available.
METAR ESGJ 012250Z 17006KT 5000 -DZ BKN004 09/09 Q1026

More Conditions Fewer Conditions

10-Day Weather Forecast

Almanac

Astronomy

Oct. 02, 2014 Rise Set
Actual Time 7:10 AM CEST 6:36 PM CEST
Civil Twilight 6:31 AM CEST 7:15 PM CEST
Nautical Twilight 5:45 AM CEST 8:01 PM CEST
Astronomical Twilight 4:57 AM CEST 8:48 PM CEST
Moon 3:37 PM CEST (10/2) No Moon Set
Length of Visible Light 12h 43m
Length of Day
11h 25m
Tomorrow will be 4m 59s shorter.
First Quarter, 52% of the Moon is Illuminated
Oct 1
First Quarter
Oct 8
Full
Oct 15
Last Quarter
Oct 23
New
Oct 30
First Quarter

Yesterday's Extremes

Country Highs Country Lows

Community

WunderPhotos

Upload Photos

1,758,077 photos uploaded!

WunderBlogs® & News

By Dr. Jeff Masters
Director of Meteorology, Weather Underground
By Kari Strenfel
Meteorologist, Weather Underground
By Christopher C. Burt
Weather Historian, Weather Underground
October 1, 2014
October 1, 2014
October 1, 2014

Nearby

Snow Depth

Not available.

Earthquake Activity

City Distance Mag. Time & Date
No recent earthquake activity has been reported nearby.
Minimum magnitude displayed is 2.5.

Coastal Water Temperatures

Place Temperature
No Stations Reporting

Nearby Weather Stations